Time;durP1;ratioP1;P1;durP2;ratioP2;P2;SDS_P1;SDS_P2;PMS_P1;PMS_P2;Temp;Humidity;BMP_temperature;BMP_pressure;BME280_temperature;BME280_humidity;BME280_pressure;Samples;Min_cycle;Max_cycle;Signal;HPM_P1;HPM_P2
2023/02/05 00:01:42;;;;;;;2.70;1.25;;;13.90;50.00;;;;;;6122573;29;20492;-64
2023/02/05 00:04:43;;;;;;;1.48;0.90;;;13.90;49.90;;;;;;6122799;29;20039;-63
2023/02/05 00:07:44;;;;;;;2.42;1.23;;;13.90;50.00;;;;;;6123966;29;20472;-63
2023/02/05 00:10:51;;;;;;;1.10;0.98;;;13.80;50.00;;;;;;6123390;29;20048;-64
2023/02/05 00:13:52;;;;;;;2.92;1.20;;;13.80;50.10;;;;;;6123767;29;20400;-62
2023/02/05 00:16:52;;;;;;;1.02;0.85;;;13.70;50.10;;;;;;6122152;29;20107;-63
2023/02/05 00:19:53;;;;;;;1.52;1.13;;;13.70;50.20;;;;;;6121694;28;20031;-63
2023/02/05 00:22:55;;;;;;;1.90;1.10;;;13.70;50.20;;;;;;6098415;29;20091;-63
2023/02/05 00:25:56;;;;;;;1.95;1.13;;;13.60;50.20;;;;;;6099690;28;20039;-63
2023/02/05 00:28:57;;;;;;;1.90;1.15;;;13.60;50.20;;;;;;6099595;29;20055;-64
2023/02/05 00:31:58;;;;;;;3.90;1.40;;;13.60;50.20;;;;;;6120091;28;20115;-64
2023/02/05 00:34:59;;;;;;;1.20;1.10;;;13.60;50.10;;;;;;6123314;29;20035;-63
2023/02/05 00:37:59;;;;;;;2.47;1.60;;;13.60;50.20;;;;;;6105779;28;20028;-63
2023/02/05 00:41:00;;;;;;;1.00;0.90;;;13.50;50.30;;;;;;6121856;28;20031;-63
2023/02/05 00:44:01;;;;;;;2.38;1.23;;;13.50;50.40;;;;;;6105997;28;20032;-64
2023/02/05 00:47:02;;;;;;;2.22;1.15;;;13.50;51.00;;;;;;6121282;29;20089;-64
2023/02/05 00:50:03;;;;;;;3.55;1.15;;;13.40;51.00;;;;;;6121233;29;20042;-62
2023/02/05 00:53:06;;;;;;;3.28;1.58;;;13.40;50.60;;;;;;6122745;28;20055;-62
2023/02/05 00:56:09;;;;;;;1.83;1.20;;;13.30;50.60;;;;;;6121515;29;20115;-62
2023/02/05 00:59:10;;;;;;;2.05;1.20;;;13.30;50.80;;;;;;6120759;28;20086;-62
2023/02/05 01:02:10;;;;;;;3.10;1.30;;;13.20;50.80;;;;;;6105379;29;20481;-64
2023/02/05 01:05:11;;;;;;;2.65;1.27;;;13.10;50.90;;;;;;6122515;29;20032;-63
2023/02/05 01:08:13;;;;;;;2.40;1.30;;;13.10;51.10;;;;;;6120590;29;20036;-62
2023/02/05 01:11:14;;;;;;;2.58;1.38;;;13.10;51.10;;;;;;6121062;29;20388;-63
2023/02/05 01:14:15;;;;;;;1.90;1.25;;;13.10;51.20;;;;;;6121183;29;20024;-63
2023/02/05 01:17:16;;;;;;;5.10;1.90;;;13.10;51.30;;;;;;6122552;29;20090;-63
2023/02/05 01:20:19;;;;;;;2.63;1.52;;;13.00;51.30;;;;;;6122438;29;20035;-63
2023/02/05 01:23:20;;;;;;;2.53;1.50;;;13.00;51.30;;;;;;6121438;29;20117;-64
2023/02/05 01:26:21;;;;;;;3.20;1.95;;;13.00;51.30;;;;;;6122346;28;20106;-63
2023/02/05 01:29:22;;;;;;;4.32;1.58;;;13.00;51.40;;;;;;6120476;28;20035;-64
2023/02/05 01:32:23;;;;;;;1.88;1.30;;;12.90;51.30;;;;;;6122469;29;20062;-63
2023/02/05 01:35:24;;;;;;;3.13;1.70;;;12.90;51.30;;;;;;6122154;28;20032;-62
2023/02/05 01:38:25;;;;;;;2.95;1.40;;;12.90;51.30;;;;;;6121717;29;20023;-62
2023/02/05 01:41:25;;;;;;;2.65;1.52;;;12.90;51.30;;;;;;6120393;29;20476;-62
2023/02/05 01:44:29;;;;;;;6.63;1.65;;;12.90;51.30;;;;;;6120698;29;20477;-63
2023/02/05 01:47:30;;;;;;;1.98;1.42;;;13.00;51.30;;;;;;6121356;29;20032;-63
2023/02/05 01:50:45;;;;;;;4.22;1.60;;;12.90;51.30;;;;;;6125833;29;20097;-62
2023/02/05 01:53:47;;;;;;;1.75;1.30;;;12.90;51.40;;;;;;6124701;28;20040;-63
2023/02/05 01:57:03;;;;;;;3.60;1.85;;;12.90;51.40;;;;;;6108976;29;20023;-63
2023/02/05 02:00:08;;;;;;;3.05;1.63;;;12.90;51.50;;;;;;6124319;29;20520;-62
2023/02/05 02:03:15;;;;;;;4.28;1.77;;;12.90;51.50;;;;;;6125765;29;20040;-62
2023/02/05 02:06:16;;;;;;;2.05;1.27;;;12.80;51.50;;;;;;6125867;29;20097;-62
2023/02/05 02:09:17;;;;;;;2.95;1.40;;;12.80;51.60;;;;;;6125530;29;20469;-62
2023/02/05 02:12:22;;;;;;;2.13;1.40;;;12.70;51.70;;;;;;6108503;29;20035;-62
2023/02/05 02:15:26;;;;;;;1.92;1.17;;;12.70;51.80;;;;;;6125708;29;20463;-63
2023/02/05 02:18:27;;;;;;;3.35;1.77;;;12.70;51.80;;;;;;6125342;29;20099;-62
2023/02/05 02:21:41;;;;;;;4.35;1.98;;;12.70;51.90;;;;;;6137202;28;20033;-63
2023/02/05 02:24:59;;;;;;;2.60;1.80;;;12.60;51.90;;;;;;6125443;28;20064;-63
2023/02/05 02:28:19;;;;;;;9.80;1.95;;;12.60;52.00;;;;;;6123960;29;20089;-62
2023/02/05 02:31:30;;;;;;;1.80;1.30;;;12.60;52.00;;;;;;6125258;29;20048;-63
2023/02/05 02:34:47;;;;;;;2.53;1.70;;;12.60;52.00;;;;;;6124218;29;20048;-63
2023/02/05 02:37:48;;;;;;;1.30;1.10;;;12.50;51.90;;;;;;6124975;29;20036;-64
2023/02/05 02:40:53;;;;;;;5.72;1.80;;;12.50;52.00;;;;;;6123741;29;20032;-64
2023/02/05 02:44:08;;;;;;;2.25;1.45;;;12.50;52.00;;;;;;6123924;29;20159;-63
2023/02/05 02:47:19;;;;;;;2.92;1.85;;;12.50;52.00;;;;;;6108078;29;20098;-63
2023/02/05 02:50:31;;;;;;;2.58;1.80;;;12.50;52.00;;;;;;6124958;29;20522;-63
2023/02/05 02:53:40;;;;;;;3.55;2.30;;;12.40;52.00;;;;;;6124909;29;20429;-64
2023/02/05 02:56:43;;;;;;;2.90;1.80;;;12.40;52.10;;;;;;6125262;29;20030;-63
2023/02/05 02:59:46;;;;;;;3.90;1.40;;;12.40;52.10;;;;;;6122045;29;20046;-63
2023/02/05 03:02:51;;;;;;;2.72;1.60;;;12.40;52.20;;;;;;6124030;29;20028;-63
2023/02/05 03:05:54;;;;;;;3.38;1.90;;;12.40;52.20;;;;;;6123841;29;20035;-63
2023/02/05 03:09:09;;;;;;;4.25;1.73;;;12.30;52.10;;;;;;6125085;28;20054;-63
2023/02/05 03:12:10;;;;;;;3.88;1.80;;;12.30;52.30;;;;;;6125302;29;20032;-62
2023/02/05 03:15:12;;;;;;;3.38;2.10;;;12.20;52.30;;;;;;6124179;29;20372;-62
2023/02/05 03:18:15;;;;;;;4.43;2.22;;;12.20;52.40;;;;;;6124568;28;20031;-63
2023/02/05 03:21:22;;;;;;;9.45;2.22;;;12.10;52.40;;;;;;6126520;29;20458;-63
2023/02/05 03:24:24;;;;;;;4.17;1.90;;;12.10;52.50;;;;;;6101607;28;20051;-63
2023/02/05 03:27:24;;;;;;;2.97;1.75;;;12.10;52.50;;;;;;6103779;29;20509;-62
2023/02/05 03:31:09;;;;;;;4.90;2.25;;;12.10;52.50;;;;;;6104530;29;20036;-62
2023/02/05 03:34:37;;;;;;;3.35;2.13;;;12.00;52.70;;;;;;6111467;29;20099;-62
2023/02/05 03:38:07;;;;;;;3.83;2.05;;;12.00;52.70;;;;;;6125679;29;20023;-63
2023/02/05 03:41:21;;;;;;;3.90;2.40;;;12.00;52.70;;;;;;6124239;29;20099;-63
2023/02/05 03:44:43;;;;;;;3.67;1.98;;;12.00;52.70;;;;;;6124915;29;20415;-62
2023/02/05 03:48:15;;;;;;;3.63;2.10;;;11.90;52.80;;;;;;6123355;29;20035;-63
2023/02/05 03:51:45;;;;;;;3.30;2.00;;;11.90;52.80;;;;;;6125105;28;20028;-62
2023/02/05 03:55:10;;;;;;;2.65;1.88;;;11.80;52.90;;;;;;6125937;29;20038;-63
2023/02/05 03:58:18;;;;;;;2.97;2.17;;;11.80;52.90;;;;;;6123418;29;20326;-63
2023/02/05 04:01:21;;;;;;;5.05;2.50;;;11.80;53.00;;;;;;6122877;29;20032;-63
2023/02/05 04:04:22;;;;;;;2.85;1.98;;;11.70;53.00;;;;;;6123030;29;20028;-62
2023/02/05 04:07:23;;;;;;;5.20;2.35;;;11.70;53.10;;;;;;6122448;29;20038;-63
2023/02/05 04:10:25;;;;;;;3.88;2.03;;;11.70;53.10;;;;;;6122204;29;20036;-62
2023/02/05 04:13:26;;;;;;;3.30;2.35;;;11.60;53.20;;;;;;6122187;29;20031;-63
2023/02/05 04:16:28;;;;;;;4.32;2.55;;;11.60;53.30;;;;;;6122201;28;20093;-62
2023/02/05 04:19:30;;;;;;;3.85;2.00;;;11.60;53.30;;;;;;6121632;28;20419;-62
2023/02/05 04:22:34;;;;;;;4.20;2.05;;;11.50;53.30;;;;;;6114597;28;20131;-62
2023/02/05 04:25:38;;;;;;;6.75;2.20;;;11.50;53.70;;;;;;6099532;29;20377;-64
2023/02/05 04:28:42;;;;;;;4.18;2.20;;;11.50;53.40;;;;;;6114072;29;20056;-63
2023/02/05 04:31:43;;;;;;;6.13;2.40;;;11.50;53.50;;;;;;6118083;28;20627;-63
2023/02/05 04:34:45;;;;;;;4.10;2.25;;;11.50;53.50;;;;;;6122153;28;20036;-63
2023/02/05 04:37:47;;;;;;;5.03;2.47;;;11.50;53.40;;;;;;6121675;29;20078;-63
2023/02/05 04:40:49;;;;;;;4.35;2.38;;;11.50;53.60;;;;;;6106403;28;20403;-63
2023/02/05 04:43:50;;;;;;;4.30;2.47;;;11.50;53.70;;;;;;6123141;28;20061;-63
2023/02/05 04:46:51;;;;;;;4.55;2.38;;;11.40;53.90;;;;;;6123208;29;20546;-63
2023/02/05 04:49:52;;;;;;;3.33;2.15;;;11.40;54.00;;;;;;6122754;29;20090;-63
2023/02/05 04:52:53;;;;;;;4.35;2.58;;;11.40;54.10;;;;;;6121825;28;20472;-63
2023/02/05 04:56:03;;;;;;;4.30;2.80;;;11.30;54.20;;;;;;6122691;29;20421;-62
2023/02/05 04:59:04;;;;;;;4.65;2.60;;;11.30;54.40;;;;;;6122274;29;20036;-63
2023/02/05 05:02:05;;;;;;;3.30;2.35;;;11.20;54.50;;;;;;6122760;29;20028;-63
2023/02/05 05:05:06;;;;;;;3.72;2.22;;;11.10;54.70;;;;;;6122704;29;20059;-63
2023/02/05 05:08:07;;;;;;;4.70;2.63;;;11.00;54.80;;;;;;6122563;29;20031;-63
2023/02/05 05:11:14;;;;;;;4.93;2.63;;;11.00;54.90;;;;;;6122442;28;20089;-63
2023/02/05 05:14:15;;;;;;;5.32;3.13;;;10.90;55.00;;;;;;6121463;29;20070;-62
2023/02/05 05:17:16;;;;;;;5.72;2.75;;;10.90;55.10;;;;;;6122611;28;20063;-63
2023/02/05 05:20:17;;;;;;;4.30;2.45;;;10.90;55.80;;;;;;6122489;28;20032;-63
2023/02/05 05:23:18;;;;;;;4.22;2.28;;;10.80;55.40;;;;;;6112400;29;20408;-61
2023/02/05 05:26:19;;;;;;;4.00;2.72;;;10.70;55.60;;;;;;6105709;29;20388;-62
2023/02/05 05:29:20;;;;;;;4.93;3.00;;;10.60;55.90;;;;;;6121938;29;20024;-63
2023/02/05 05:32:21;;;;;;;4.70;2.28;;;10.60;56.10;;;;;;6122240;29;20540;-63
2023/02/05 05:35:22;;;;;;;4.57;2.50;;;10.40;56.30;;;;;;6122244;29;20027;-62
2023/02/05 05:38:22;;;;;;;4.90;2.90;;;10.40;56.50;;;;;;6121953;29;20102;-62
2023/02/05 05:44:43;;;;;;;5.53;3.15;;;10.20;56.90;;;;;;6122196;29;20071;-64
2023/02/05 05:47:44;;;;;;;8.60;2.60;;;10.10;57.00;;;;;;6121607;29;20028;-64
2023/02/05 05:50:45;;;;;;;6.40;2.85;;;10.10;57.00;;;;;;6121037;29;20472;-63
2023/02/05 05:53:46;;;;;;;5.32;3.17;;;10.00;57.20;;;;;;6121849;28;20035;-64
2023/02/05 05:56:48;;;;;;;5.65;3.30;;;9.90;57.50;;;;;;6121030;29;20028;-62
2023/02/05 05:59:49;;;;;;;6.15;3.47;;;9.90;57.70;;;;;;6122778;29;20036;-63
2023/02/05 06:02:50;;;;;;;4.68;2.53;;;9.80;57.90;;;;;;6122198;28;20112;-63
2023/02/05 06:05:50;;;;;;;7.93;3.25;;;9.80;58.10;;;;;;6122016;29;20032;-64
2023/02/05 06:08:51;;;;;;;11.00;3.00;;;9.70;58.10;;;;;;6120362;28;20097;-63
2023/02/05 06:11:52;;;;;;;6.63;2.78;;;9.70;58.10;;;;;;6121709;29;20059;-62
2023/02/05 06:14:53;;;;;;;6.53;3.53;;;9.70;58.20;;;;;;6121975;28;20383;-62
2023/02/05 06:17:54;;;;;;;5.40;3.17;;;9.70;58.30;;;;;;6121566;28;20032;-63
2023/02/05 06:20:55;;;;;;;6.38;2.97;;;9.60;58.40;;;;;;6121866;29;20036;-62
2023/02/05 06:23:55;;;;;;;6.35;2.88;;;9.60;58.50;;;;;;6121152;28;20039;-62
2023/02/05 06:26:56;;;;;;;6.80;3.22;;;9.60;58.50;;;;;;6121793;29;20086;-63
2023/02/05 06:29:57;;;;;;;9.40;3.92;;;9.50;58.60;;;;;;6121326;29;20488;-64
2023/02/05 06:32:58;;;;;;;8.13;3.40;;;10.00;59.00;;;;;;6121819;29;20036;-64
2023/02/05 06:35:58;;;;;;;6.53;3.47;;;9.50;58.90;;;;;;6125615;29;20024;-63
2023/02/05 06:38:59;;;;;;;5.57;3.08;;;9.40;59.00;;;;;;6123997;29;20472;-64
2023/02/05 06:42:00;;;;;;;7.57;4.07;;;9.40;59.10;;;;;;6125431;29;20028;-62
2023/02/05 06:45:01;;;;;;;13.48;3.70;;;9.40;59.10;;;;;;6125471;29;20467;-63
2023/02/05 06:48:02;;;;;;;5.68;2.95;;;9.40;59.10;;;;;;6125315;29;20119;-64
2023/02/05 06:51:03;;;;;;;6.25;2.97;;;9.40;59.10;;;;;;6125342;29;20060;-62
2023/02/05 06:54:04;;;;;;;4.38;2.83;;;9.40;59.10;;;;;;6125506;28;20059;-63
2023/02/05 06:57:05;;;;;;;6.95;2.88;;;9.40;59.10;;;;;;6123817;29;20044;-63
2023/02/05 07:00:07;;;;;;;5.78;3.42;;;9.40;59.10;;;;;;6124529;29;20042;-62
2023/02/05 07:03:08;;;;;;;7.13;3.47;;;9.40;59.20;;;;;;6123756;28;20472;-63
2023/02/05 07:06:09;;;;;;;5.18;3.03;;;9.40;59.20;;;;;;6125024;29;20039;-62
2023/02/05 07:09:10;;;;;;;6.88;3.17;;;9.40;59.20;;;;;;6123539;29;20043;-63
2023/02/05 07:12:11;;;;;;;6.95;3.85;;;9.40;59.20;;;;;;6124893;29;20074;-63
2023/02/05 07:15:14;;;;;;;6.47;3.42;;;9.40;59.10;;;;;;6124849;29;20035;-63
2023/02/05 07:18:14;;;;;;;6.03;3.63;;;9.40;59.20;;;;;;6124562;29;20031;-64
2023/02/05 07:21:16;;;;;;;5.50;3.20;;;9.40;59.20;;;;;;6124770;29;20392;-62
2023/02/05 07:24:16;;;;;;;6.88;3.63;;;9.40;59.20;;;;;;6124415;29;20036;-63
2023/02/05 07:27:17;;;;;;;6.45;3.53;;;9.40;59.20;;;;;;6123249;28;20050;-62
2023/02/05 07:30:18;;;;;;;5.22;3.28;;;9.40;59.20;;;;;;6124251;28;20484;-63
2023/02/05 07:33:19;;;;;;;6.40;3.45;;;9.40;59.20;;;;;;6124539;29;20016;-63
2023/02/05 07:36:20;;;;;;;6.38;3.47;;;9.40;59.10;;;;;;6124742;28;20024;-62
2023/02/05 07:39:21;;;;;;;4.30;3.05;;;9.40;59.10;;;;;;6124221;28;20126;-65
2023/02/05 07:42:22;;;;;;;6.78;3.58;;;9.40;59.20;;;;;;6123079;29;20031;-63
2023/02/05 07:45:29;;;;;;;6.28;3.28;;;9.40;59.20;;;;;;6122190;28;20035;-64
2023/02/05 07:48:30;;;;;;;6.18;2.92;;;9.40;59.20;;;;;;6122949;29;20476;-63
2023/02/05 07:51:33;;;;;;;9.10;3.42;;;9.40;59.10;;;;;;6123942;28;20023;-62
2023/02/05 07:54:34;;;;;;;4.50;3.22;;;9.40;59.00;;;;;;6123074;29;20031;-63
2023/02/05 07:57:35;;;;;;;8.20;3.13;;;9.50;59.00;;;;;;6122597;29;20034;-63
2023/02/05 08:00:36;;;;;;;7.00;3.25;;;9.50;59.00;;;;;;6122626;28;20046;-62
2023/02/05 08:03:37;;;;;;;6.22;3.28;;;9.50;58.90;;;;;;6123962;29;20028;-63
2023/02/05 08:06:37;;;;;;;9.85;3.88;;;9.50;58.70;;;;;;6123812;29;20055;-62
2023/02/05 08:09:38;;;;;;;18.38;3.42;;;9.60;58.80;;;;;;6122331;28;20058;-63
2023/02/05 08:12:39;;;;;;;8.43;3.15;;;9.60;58.60;;;;;;6122447;29;20098;-63
2023/02/05 08:15:40;;;;;;;8.05;3.33;;;9.60;58.50;;;;;;6123585;29;20387;-63
2023/02/05 08:18:41;;;;;;;25.63;4.75;;;9.70;58.50;;;;;;6122362;29;20476;-64
2023/02/05 08:21:43;;;;;;;23.23;4.50;;;9.70;58.40;;;;;;6122044;29;20042;-62
2023/02/05 08:24:44;;;;;;;10.93;3.38;;;9.80;58.30;;;;;;6122537;29;20036;-63
2023/02/05 08:27:45;;;;;;;16.42;4.20;;;9.90;58.20;;;;;;6123256;29;20044;-64
2023/02/05 08:30:46;;;;;;;9.70;4.20;;;9.90;58.20;;;;;;6123634;28;20051;-64
2023/02/05 08:33:49;;;;;;;7.10;3.83;;;9.90;58.00;;;;;;6123472;29;20028;-64
2023/02/05 08:36:50;;;;;;;4.97;3.17;;;10.00;58.00;;;;;;6123471;29;20480;-63
2023/02/05 08:39:51;;;;;;;6.55;3.70;;;10.00;57.80;;;;;;6122888;29;20028;-63
2023/02/05 08:42:55;;;;;;;8.90;3.80;;;10.00;57.80;;;;;;6123339;28;20042;-63
2023/02/05 08:45:56;;;;;;;12.77;3.67;;;10.00;57.70;;;;;;6123242;28;20047;-63
2023/02/05 08:48:57;;;;;;;9.82;4.32;;;10.10;57.70;;;;;;6123071;28;20094;-63
2023/02/05 08:52:02;;;;;;;9.40;3.83;;;10.20;57.70;;;;;;6123618;28;20055;-62
2023/02/05 08:55:06;;;;;;;8.10;3.75;;;10.20;57.40;;;;;;6122472;29;20067;-64
2023/02/05 08:58:07;;;;;;;8.75;4.30;;;10.20;57.10;;;;;;6120784;28;20066;-63
2023/02/05 09:01:11;;;;;;;6.30;3.55;;;10.30;57.00;;;;;;6121861;29;20035;-63
2023/02/05 09:04:14;;;;;;;7.05;4.25;;;10.30;56.90;;;;;;6123187;28;20032;-64
2023/02/05 09:07:15;;;;;;;10.32;4.82;;;10.40;56.90;;;;;;6123017;28;20055;-65
2023/02/05 09:10:17;;;;;;;13.57;3.95;;;10.40;56.80;;;;;;6122353;29;20146;-63
2023/02/05 09:13:18;;;;;;;14.60;4.18;;;10.50;56.70;;;;;;6122445;29;20039;-62
2023/02/05 09:16:20;;;;;;;7.65;4.43;;;10.60;56.50;;;;;;6121413;29;20182;-63
2023/02/05 09:19:21;;;;;;;10.30;4.47;;;10.70;56.40;;;;;;6122319;29;20055;-63
2023/02/05 09:22:22;;;;;;;12.52;4.63;;;10.80;56.20;;;;;;6122122;29;20032;-63
2023/02/05 09:25:23;;;;;;;9.02;4.03;;;10.90;55.90;;;;;;6121245;28;20039;-63
2023/02/05 09:28:24;;;;;;;10.63;4.07;;;11.00;55.90;;;;;;6120752;29;20038;-63
2023/02/05 09:31:25;;;;;;;13.48;4.10;;;11.00;55.60;;;;;;6122241;29;20548;-62
2023/02/05 09:34:26;;;;;;;13.88;5.13;;;11.20;55.30;;;;;;6122266;29;20110;-63
2023/02/05 09:37:27;;;;;;;9.80;4.28;;;11.30;55.20;;;;;;6122336;28;20030;-63
2023/02/05 09:40:37;;;;;;;7.68;3.78;;;11.50;54.90;;;;;;6122267;28;20036;-63
2023/02/05 09:43:50;;;;;;;7.70;3.85;;;11.60;54.60;;;;;;6122244;28;20134;-63
2023/02/05 09:47:06;;;;;;;8.82;3.30;;;11.80;54.40;;;;;;6122141;29;20032;-64
2023/02/05 09:50:17;;;;;;;10.05;4.03;;;11.80;54.10;;;;;;6121729;29;20329;-63
2023/02/05 09:53:21;;;;;;;7.38;3.88;;;11.90;53.70;;;;;;6146660;28;20032;-62
2023/02/05 09:56:25;;;;;;;9.32;3.90;;;11.90;53.00;;;;;;6120659;28;20038;-63
2023/02/05 09:59:27;;;;;;;5.97;3.22;;;11.90;53.00;;;;;;6120398;29;20578;-65
2023/02/05 10:02:40;;;;;;;8.38;3.78;;;11.90;52.90;;;;;;6104783;28;20036;-63
2023/02/05 10:06:10;;;;;;;10.75;3.58;;;12.00;52.80;;;;;;6120786;28;20089;-63
2023/02/05 10:09:32;;;;;;;7.82;3.25;;;12.10;52.50;;;;;;6195971;28;20058;-63
2023/02/05 10:12:51;;;;;;;4.57;2.70;;;12.20;52.30;;;;;;6182587;28;20225;-62
2023/02/05 10:16:22;;;;;;;5.38;3.15;;;12.20;52.10;;;;;;6199058;28;20034;-64
2023/02/05 10:19:53;;;;;;;5.63;2.80;;;12.30;51.80;;;;;;6198524;28;20431;-63
2023/02/05 10:23:05;;;;;;;12.38;3.38;;;12.40;51.40;;;;;;6198622;28;20130;-62
2023/02/05 10:26:11;;;;;;;6.72;3.28;;;12.50;51.10;;;;;;6182664;28;20145;-62
2023/02/05 10:29:23;;;;;;;5.78;2.90;;;12.90;51.00;;;;;;6181738;28;20044;-62
2023/02/05 10:33:08;;;;;;;5.82;2.97;;;13.30;50.30;;;;;;6198667;28;20042;-63
2023/02/05 10:36:10;;;;;;;7.03;3.47;;;13.50;49.40;;;;;;6196774;28;20043;-62
2023/02/05 10:39:15;;;;;;;9.27;3.85;;;13.50;48.70;;;;;;6198195;28;20050;-63
2023/02/05 10:42:27;;;;;;;5.45;3.22;;;13.50;48.50;;;;;;6182181;28;20077;-64
2023/02/05 10:45:29;;;;;;;16.67;4.50;;;13.50;48.60;;;;;;6169878;28;20389;-63
2023/02/05 10:48:49;;;;;;;6.13;3.00;;;13.70;48.50;;;;;;6124823;28;20533;-62
2023/02/05 10:51:50;;;;;;;4.97;2.90;;;13.80;48.20;;;;;;6123809;28;20067;-63
2023/02/05 10:54:50;;;;;;;5.05;2.42;;;14.00;47.70;;;;;;6125085;29;20028;-62
2023/02/05 10:57:51;;;;;;;4.95;2.58;;;14.20;47.40;;;;;;6124840;29;20078;-63
2023/02/05 11:00:53;;;;;;;6.80;2.78;;;14.40;47.10;;;;;;6124891;29;20039;-63
2023/02/05 11:04:02;;;;;;;4.65;2.53;;;14.60;46.20;;;;;;6123569;29;20499;-64
2023/02/05 11:07:09;;;;;;;4.35;2.05;;;14.90;46.10;;;;;;6123580;28;20391;-63
2023/02/05 11:10:40;;;;;;;6.35;2.53;;;15.10;45.80;;;;;;6123359;29;20031;-64
2023/02/05 11:13:48;;;;;;;3.17;1.92;;;15.20;44.40;;;;;;6051611;29;20041;-63
2023/02/05 11:16:49;;;;;;;;;;;15.30;44.10;;;;;;6037035;29;20143;-62
2023/02/05 11:20:10;;;;;;;3.67;2.13;;;15.40;43.90;;;;;;6050410;29;19911;-64
2023/02/05 11:23:23;;;;;;;7.07;2.72;;;15.40;43.30;;;;;;6051232;29;20495;-64
2023/02/05 11:26:27;;;;;;;4.60;2.03;;;15.40;43.10;;;;;;6036254;29;20140;-62
2023/02/05 11:29:28;;;;;;;10.98;3.10;;;15.50;42.70;;;;;;6050978;29;20045;-64
2023/02/05 11:32:36;;;;;;;5.25;2.10;;;15.60;42.20;;;;;;6051253;29;20494;-63
2023/02/05 11:35:37;;;;;;;4.80;2.55;;;15.50;42.40;;;;;;6035755;29;20040;-64
2023/02/05 11:38:59;;;;;;;4.32;2.20;;;15.40;42.30;;;;;;6051078;29;20052;-63
2023/02/05 11:42:15;;;;;;;3.38;1.92;;;15.50;41.80;;;;;;6051429;29;20036;-63
2023/02/05 11:45:18;;;;;;;6.07;2.15;;;15.70;41.40;;;;;;6050750;29;20041;-63
2023/02/05 11:48:33;;;;;;;2.72;1.83;;;15.70;41.40;;;;;;6052442;29;20103;-63
2023/02/05 11:51:34;;;;;;;5.28;2.25;;;16.20;40.80;;;;;;6122731;28;20053;-63
2023/02/05 11:54:36;;;;;;;4.53;1.90;;;16.90;39.70;;;;;;6123867;29;20387;-63
2023/02/05 11:57:41;;;;;;;6.43;2.00;;;17.30;37.70;;;;;;6091121;29;20404;-66
2023/02/05 12:00:51;;;;;;;4.05;1.58;;;17.50;36.80;;;;;;6123883;29;20077;-64
2023/02/05 12:04:19;;;;;;;7.18;2.53;;;17.60;38.00;;;;;;6123879;29;20032;-64
2023/02/05 12:07:22;;;;;;;3.97;1.80;;;18.00;36.40;;;;;;6123509;29;20020;-64
2023/02/05 12:10:48;;;;;;;6.88;2.08;;;18.40;36.10;;;;;;6123548;29;20123;-63
2023/02/05 12:13:49;;;;;;;3.83;2.22;;;18.40;36.30;;;;;;6123726;29;20036;-62
2023/02/05 12:17:14;;;;;;;5.10;1.45;;;18.20;36.50;;;;;;6123577;29;20043;-64
2023/02/05 12:21:03;;;;;;;6.15;2.45;;;17.80;36.60;;;;;;6122388;29;20051;-64
2023/02/05 12:24:15;;;;;;;5.97;2.47;;;17.40;37.20;;;;;;6050667;29;20041;-62
2023/02/05 12:27:28;;;;;;;4.25;2.58;;;17.20;37.80;;;;;;6050565;29;20449;-64
2023/02/05 12:31:06;;;;;;;4.85;2.45;;;17.20;38.20;;;;;;6050726;29;20037;-64
2023/02/05 12:34:41;;;;;;;5.40;1.80;;;17.20;38.10;;;;;;6034843;29;20064;-64
2023/02/05 12:37:59;;;;;;;4.15;1.50;;;16.90;36.80;;;;;;6034676;29;20029;-63
2023/02/05 12:41:12;;;;;;;2.47;1.77;;;16.50;37.50;;;;;;6050034;29;20131;-64
2023/02/05 12:44:19;;;;;;;4.63;1.90;;;16.30;38.00;;;;;;6034720;29;20040;-63
2023/02/05 12:47:22;;;;;;;5.28;1.75;;;16.20;38.40;;;;;;6049943;29;20115;-64
2023/02/05 12:50:42;;;;;;;5.78;1.75;;;16.30;38.60;;;;;;6034188;29;20029;-62
2023/02/05 12:54:05;;;;;;;8.43;2.17;;;16.30;38.50;;;;;;6049736;29;20131;-64
2023/02/05 12:57:13;;;;;;;6.13;2.13;;;16.40;38.40;;;;;;6049303;29;20103;-64
2023/02/05 13:00:29;;;;;;;3.45;1.95;;;16.40;38.60;;;;;;6094535;29;20159;-63
2023/02/05 13:03:37;;;;;;;7.82;2.03;;;16.40;38.60;;;;;;6122836;29;20526;-64
2023/02/05 13:06:45;;;;;;;;;;;16.30;38.40;;;;;;6123333;29;20074;-62
2023/02/05 13:09:55;;;;;;;3.72;1.48;;;16.20;38.40;;;;;;6121238;29;20305;-64
2023/02/05 13:13:05;;;;;;;6.05;1.77;;;16.10;38.40;;;;;;6122942;29;20161;-63
2023/02/05 13:16:13;;;;;;;10.75;3.20;;;15.90;38.60;;;;;;6121527;29;20389;-62
2023/02/05 13:19:52;;;;;;;2.55;1.77;;;15.80;38.80;;;;;;6123919;29;20036;-64
2023/02/05 13:29:49;;;;;;;4.00;2.08;;;15.30;39.80;;;;;;6124158;29;20075;-64
2023/02/05 13:32:54;;;;;;;6.25;2.00;;;15.10;40.00;;;;;;6122769;29;20122;-65
2023/02/05 13:36:20;;;;;;;6.97;2.05;;;15.10;40.40;;;;;;6121282;29;20484;-65
2023/02/05 13:39:58;;;;;;;18.73;2.65;;;15.00;40.70;;;;;;6120652;28;20059;-61
2023/02/05 13:43:16;;;;;;;4.80;2.38;;;14.90;40.90;;;;;;6122845;29;20028;-63
2023/02/05 13:46:37;;;;;;;12.77;2.17;;;14.80;41.10;;;;;;6126447;29;20035;-65
2023/02/05 13:50:07;;;;;;;6.57;1.77;;;14.70;41.30;;;;;;6124747;28;20039;-62
2023/02/05 13:53:31;;;;;;;4.40;1.63;;;14.50;41.60;;;;;;6133250;28;20122;-63
2023/02/05 13:56:37;;;;;;;3.65;1.80;;;14.50;41.90;;;;;;6126236;29;20035;-63
2023/02/05 13:59:52;;;;;;;2.40;1.65;;;14.40;42.10;;;;;;6124276;29;20483;-64
2023/02/05 14:02:55;;;;;;;7.15;2.25;;;14.40;42.40;;;;;;6124895;29;20027;-62
2023/02/05 14:05:56;;;;;;;6.22;2.17;;;14.30;42.80;;;;;;6125932;29;20034;-64
2023/02/05 14:09:09;;;;;;;2.50;1.65;;;14.20;42.80;;;;;;6124481;29;20094;-63
2023/02/05 14:12:20;;;;;;;5.80;2.03;;;14.20;42.80;;;;;;6125709;29;20043;-64
2023/02/05 14:15:23;;;;;;;4.50;2.00;;;14.20;42.60;;;;;;6124584;28;20032;-64
2023/02/05 14:18:39;;;;;;;2.15;1.42;;;14.20;42.80;;;;;;6125548;29;20435;-62
2023/02/05 14:22:11;;;;;;;5.60;2.55;;;14.20;42.90;;;;;;6125798;29;20495;-63
2023/02/05 14:25:33;;;;;;;4.05;1.55;;;14.20;43.10;;;;;;6150357;29;20103;-64
2023/02/05 14:28:42;;;;;;;5.03;2.25;;;14.10;43.30;;;;;;6150311;29;20043;-63
2023/02/05 14:31:46;;;;;;;;;;;14.10;43.50;;;;;;6118680;29;20038;-63
2023/02/05 14:34:56;;;;;;;9.18;2.08;;;14.10;43.80;;;;;;6090197;29;19938;-63
2023/02/05 14:38:02;;;;;;;11.70;1.90;;;14.10;44.10;;;;;;6021032;29;20033;-63
2023/02/05 14:41:14;;;;;;;5.00;2.20;;;14.10;44.20;;;;;;6036755;29;20041;-63
2023/02/05 14:44:30;;;;;;;10.80;2.42;;;14.00;44.40;;;;;;6052898;29;20045;-62
2023/02/05 14:47:34;;;;;;;6.63;2.45;;;13.90;44.70;;;;;;6052021;29;20056;-63
2023/02/05 14:50:36;;;;;;;5.35;1.83;;;13.80;45.00;;;;;;6052228;29;20041;-63
2023/02/05 14:53:38;;;;;;;5.88;2.20;;;13.80;45.30;;;;;;6036401;29;20191;-63
2023/02/05 14:56:48;;;;;;;4.28;2.13;;;13.70;45.30;;;;;;6052207;29;20045;-63
2023/02/05 14:59:54;;;;;;;3.97;1.70;;;13.70;45.50;;;;;;6053032;29;20052;-64
2023/02/05 15:03:07;;;;;;;4.50;1.73;;;13.70;45.40;;;;;;6100540;29;20033;-67
2023/02/05 15:06:15;;;;;;;3.53;1.98;;;13.60;45.40;;;;;;6084549;29;20036;-64
2023/02/05 15:09:24;;;;;;;6.07;2.30;;;13.60;45.40;;;;;;6101217;28;20040;-63
2023/02/05 15:12:52;;;;;;;6.75;2.28;;;13.60;45.30;;;;;;6100174;28;20063;-63
2023/02/05 15:16:17;;;;;;;9.73;2.22;;;13.60;45.40;;;;;;6101167;29;20115;-64
2023/02/05 15:19:18;;;;;;;7.65;1.90;;;13.60;45.60;;;;;;6099648;29;20499;-64
2023/02/05 15:22:31;;;;;;;7.10;2.13;;;13.60;45.70;;;;;;6105912;29;20125;-63
2023/02/05 15:25:35;;;;;;;6.82;2.08;;;13.70;45.90;;;;;;6123382;29;20434;-64
2023/02/05 15:28:44;;;;;;;6.95;1.80;;;13.60;46.00;;;;;;6124533;29;20047;-64
2023/02/05 15:31:53;;;;;;;6.10;2.30;;;13.60;46.20;;;;;;6124247;28;20035;-63
2023/02/05 15:35:03;;;;;;;5.90;2.35;;;13.50;46.20;;;;;;6123358;29;20076;-64
2023/02/05 15:38:23;;;;;;;7.15;2.65;;;13.50;46.40;;;;;;6123984;29;20039;-64
2023/02/05 15:41:24;;;;;;;7.53;2.05;;;13.50;46.70;;;;;;6124413;29;20035;-65
2023/02/05 15:44:29;;;;;;;6.38;2.28;;;13.40;46.90;;;;;;6124129;29;20039;-65
2023/02/05 15:47:30;;;;;;;7.53;2.40;;;13.30;47.00;;;;;;6122917;29;20069;-65
2023/02/05 15:50:33;;;;;;;5.18;2.17;;;13.30;47.10;;;;;;6122936;29;20035;-64
2023/02/05 15:53:41;;;;;;;5.22;2.03;;;13.30;47.20;;;;;;6122550;28;20447;-64
2023/02/05 15:57:03;;;;;;;7.20;2.70;;;13.40;47.20;;;;;;6123944;29;20089;-63
2023/02/05 16:00:08;;;;;;;5.85;2.67;;;13.40;47.20;;;;;;6123400;29;20059;-63
2023/02/05 16:03:29;;;;;;;8.68;2.88;;;13.30;47.30;;;;;;6123903;29;20032;-63
2023/02/05 16:06:30;;;;;;;7.82;2.50;;;13.30;47.40;;;;;;6122732;29;20482;-62
2023/02/05 16:09:34;;;;;;;7.80;1.75;;;13.30;47.50;;;;;;6122145;28;20031;-63
2023/02/05 16:12:35;;;;;;;5.85;2.25;;;13.30;47.60;;;;;;6123494;28;20039;-63
2023/02/05 16:15:51;;;;;;;9.05;2.60;;;13.20;47.50;;;;;;6123560;29;20028;-64
2023/02/05 16:18:58;;;;;;;5.43;2.10;;;13.20;47.60;;;;;;6121983;28;20027;-63
2023/02/05 16:22:09;;;;;;;5.25;2.00;;;13.20;47.80;;;;;;6119630;29;20055;-65
2023/02/05 16:25:55;;;;;;;10.25;2.28;;;13.10;48.20;;;;;;6099968;29;20070;-68